sensor_id;sensor_type;location;lat;lon;timestamp;P1;durP1;ratioP1;P2;durP2;ratioP2
35891;SDS011;21993;42.672;23.296;2022-09-17T00:00:24;10.90;;;6.03;;
35891;SDS011;21993;42.672;23.296;2022-09-17T00:02:52;12.63;;;7.40;;
35891;SDS011;21993;42.672;23.296;2022-09-17T00:05:22;10.20;;;6.30;;
35891;SDS011;21993;42.672;23.296;2022-09-17T00:07:49;12.70;;;6.73;;
35891;SDS011;21993;42.672;23.296;2022-09-17T00:10:16;11.73;;;5.70;;
35891;SDS011;21993;42.672;23.296;2022-09-17T00:12:42;9.90;;;6.17;;
35891;SDS011;21993;42.672;23.296;2022-09-17T00:15:08;10.33;;;6.30;;
35891;SDS011;21993;42.672;23.296;2022-09-17T00:17:33;14.10;;;7.50;;
35891;SDS011;21993;42.672;23.296;2022-09-17T00:19:59;10.07;;;5.93;;
35891;SDS011;21993;42.672;23.296;2022-09-17T00:22:24;10.23;;;6.30;;
35891;SDS011;21993;42.672;23.296;2022-09-17T00:24:50;12.43;;;7.40;;
35891;SDS011;21993;42.672;23.296;2022-09-17T00:27:15;8.43;;;6.30;;
35891;SDS011;21993;42.672;23.296;2022-09-17T00:29:41;14.50;;;6.47;;
35891;SDS011;21993;42.672;23.296;2022-09-17T00:32:06;10.50;;;6.30;;
35891;SDS011;21993;42.672;23.296;2022-09-17T00:34:31;12.70;;;6.90;;
35891;SDS011;21993;42.672;23.296;2022-09-17T00:36:57;14.03;;;6.33;;
35891;SDS011;21993;42.672;23.296;2022-09-17T00:39:22;9.20;;;6.20;;
35891;SDS011;21993;42.672;23.296;2022-09-17T00:41:48;11.03;;;6.57;;
35891;SDS011;21993;42.672;23.296;2022-09-17T00:47:40;13.13;;;6.37;;
35891;SDS011;21993;42.672;23.296;2022-09-17T00:53:07;9.57;;;6.50;;
35891;SDS011;21993;42.672;23.296;2022-09-17T00:58:50;14.13;;;6.80;;
35891;SDS011;21993;42.672;23.296;2022-09-17T01:01:17;10.73;;;6.43;;
35891;SDS011;21993;42.672;23.296;2022-09-17T01:03:42;10.63;;;6.67;;
35891;SDS011;21993;42.672;23.296;2022-09-17T01:14:54;13.20;;;6.87;;
35891;SDS011;21993;42.672;23.296;2022-09-17T01:26:11;8.93;;;5.97;;
35891;SDS011;21993;42.672;23.296;2022-09-17T01:35:04;11.07;;;6.77;;
35891;SDS011;21993;42.672;23.296;2022-09-17T01:40:27;10.23;;;6.53;;
35891;SDS011;21993;42.672;23.296;2022-09-17T01:43:10;7.63;;;5.53;;
35891;SDS011;21993;42.672;23.296;2022-09-17T01:45:49;8.83;;;6.30;;
35891;SDS011;21993;42.672;23.296;2022-09-17T01:53:14;12.07;;;7.43;;
35891;SDS011;21993;42.672;23.296;2022-09-17T01:55:42;12.83;;;6.30;;
35891;SDS011;21993;42.672;23.296;2022-09-17T01:58:12;11.23;;;5.97;;
35891;SDS011;21993;42.672;23.296;2022-09-17T02:00:43;9.53;;;5.97;;
35891;SDS011;21993;42.672;23.296;2022-09-17T02:03:20;10.07;;;6.03;;
35891;SDS011;21993;42.672;23.296;2022-09-17T02:05:54;7.60;;;5.60;;
35891;SDS011;21993;42.672;23.296;2022-09-17T02:08:25;8.13;;;5.73;;
35891;SDS011;21993;42.672;23.296;2022-09-17T02:11:13;10.87;;;5.40;;
35891;SDS011;21993;42.672;23.296;2022-09-17T02:14:01;10.47;;;5.43;;
35891;SDS011;21993;42.672;23.296;2022-09-17T02:16:32;9.10;;;5.43;;
35891;SDS011;21993;42.672;23.296;2022-09-17T02:29:51;10.27;;;5.87;;
35891;SDS011;21993;42.672;23.296;2022-09-17T02:32:16;11.70;;;6.70;;
35891;SDS011;21993;42.672;23.296;2022-09-17T02:34:41;8.43;;;6.40;;
35891;SDS011;21993;42.672;23.296;2022-09-17T02:37:07;12.07;;;6.30;;
35891;SDS011;21993;42.672;23.296;2022-09-17T02:39:33;9.23;;;5.83;;
35891;SDS011;21993;42.672;23.296;2022-09-17T02:50:17;7.17;;;5.53;;
35891;SDS011;21993;42.672;23.296;2022-09-17T02:52:58;8.87;;;5.03;;
35891;SDS011;21993;42.672;23.296;2022-09-17T03:00:46;15.80;;;6.00;;
35891;SDS011;21993;42.672;23.296;2022-09-17T03:03:16;10.77;;;6.10;;
35891;SDS011;21993;42.672;23.296;2022-09-17T03:05:53;9.40;;;5.60;;
35891;SDS011;21993;42.672;23.296;2022-09-17T03:08:26;8.97;;;5.37;;
35891;SDS011;21993;42.672;23.296;2022-09-17T03:10:53;7.10;;;5.30;;
35891;SDS011;21993;42.672;23.296;2022-09-17T03:13:18;8.73;;;5.53;;
35891;SDS011;21993;42.672;23.296;2022-09-17T03:15:44;8.23;;;5.10;;
35891;SDS011;21993;42.672;23.296;2022-09-17T03:18:09;10.03;;;5.30;;
35891;SDS011;21993;42.672;23.296;2022-09-17T03:20:35;7.77;;;5.37;;
35891;SDS011;21993;42.672;23.296;2022-09-17T03:23:00;9.37;;;5.40;;
35891;SDS011;21993;42.672;23.296;2022-09-17T03:25:26;9.40;;;5.37;;
35891;SDS011;21993;42.672;23.296;2022-09-17T03:27:51;10.83;;;5.30;;
35891;SDS011;21993;42.672;23.296;2022-09-17T03:30:17;8.80;;;5.30;;
35891;SDS011;21993;42.672;23.296;2022-09-17T03:32:43;10.27;;;5.10;;
35891;SDS011;21993;42.672;23.296;2022-09-17T03:35:09;6.93;;;5.23;;
35891;SDS011;21993;42.672;23.296;2022-09-17T03:37:34;13.03;;;5.20;;
35891;SDS011;21993;42.672;23.296;2022-09-17T03:40:00;11.60;;;5.47;;
35891;SDS011;21993;42.672;23.296;2022-09-17T03:42:26;8.77;;;5.67;;
35891;SDS011;21993;42.672;23.296;2022-09-17T03:44:51;7.37;;;5.30;;
35891;SDS011;21993;42.672;23.296;2022-09-17T03:47:17;9.00;;;5.10;;
35891;SDS011;21993;42.672;23.296;2022-09-17T03:49:42;7.17;;;5.13;;
35891;SDS011;21993;42.672;23.296;2022-09-17T03:52:07;10.37;;;4.93;;
35891;SDS011;21993;42.672;23.296;2022-09-17T03:54:33;9.37;;;4.70;;
35891;SDS011;21993;42.672;23.296;2022-09-17T03:56:58;7.23;;;4.37;;
35891;SDS011;21993;42.672;23.296;2022-09-17T03:59:24;10.60;;;4.50;;
35891;SDS011;21993;42.672;23.296;2022-09-17T04:01:50;9.13;;;5.33;;
35891;SDS011;21993;42.672;23.296;2022-09-17T04:04:15;8.27;;;5.30;;
35891;SDS011;21993;42.672;23.296;2022-09-17T04:06:41;6.53;;;5.30;;
35891;SDS011;21993;42.672;23.296;2022-09-17T04:09:06;7.77;;;5.10;;
35891;SDS011;21993;42.672;23.296;2022-09-17T04:11:33;7.80;;;5.37;;
35891;SDS011;21993;42.672;23.296;2022-09-17T04:13:58;6.50;;;4.90;;
35891;SDS011;21993;42.672;23.296;2022-09-17T04:16:24;10.00;;;4.90;;
35891;SDS011;21993;42.672;23.296;2022-09-17T04:18:49;7.07;;;4.73;;
35891;SDS011;21993;42.672;23.296;2022-09-17T04:21:15;8.60;;;4.43;;
35891;SDS011;21993;42.672;23.296;2022-09-17T04:23:40;9.90;;;4.93;;
35891;SDS011;21993;42.672;23.296;2022-09-17T04:26:05;7.63;;;5.10;;
35891;SDS011;21993;42.672;23.296;2022-09-17T04:28:31;8.77;;;5.97;;
35891;SDS011;21993;42.672;23.296;2022-09-17T04:30:56;8.67;;;5.20;;
35891;SDS011;21993;42.672;23.296;2022-09-17T04:33:22;8.43;;;5.00;;
35891;SDS011;21993;42.672;23.296;2022-09-17T04:35:47;7.57;;;5.63;;
35891;SDS011;21993;42.672;23.296;2022-09-17T04:38:13;12.33;;;6.93;;
35891;SDS011;21993;42.672;23.296;2022-09-17T04:40:42;9.33;;;5.40;;
35891;SDS011;21993;42.672;23.296;2022-09-17T04:43:08;8.63;;;5.57;;
35891;SDS011;21993;42.672;23.296;2022-09-17T04:45:34;9.90;;;6.50;;
35891;SDS011;21993;42.672;23.296;2022-09-17T04:48:00;8.37;;;6.40;;
35891;SDS011;21993;42.672;23.296;2022-09-17T04:50:26;9.70;;;6.67;;
35891;SDS011;21993;42.672;23.296;2022-09-17T04:52:52;11.67;;;6.60;;
35891;SDS011;21993;42.672;23.296;2022-09-17T04:55:17;14.53;;;6.60;;
35891;SDS011;21993;42.672;23.296;2022-09-17T04:57:50;9.60;;;5.80;;
35891;SDS011;21993;42.672;23.296;2022-09-17T05:00:17;9.47;;;5.20;;
35891;SDS011;21993;42.672;23.296;2022-09-17T05:02:45;7.83;;;4.37;;
35891;SDS011;21993;42.672;23.296;2022-09-17T05:05:13;8.70;;;5.10;;
35891;SDS011;21993;42.672;23.296;2022-09-17T05:07:39;10.93;;;3.80;;
35891;SDS011;21993;42.672;23.296;2022-09-17T05:10:05;8.17;;;3.57;;
35891;SDS011;21993;42.672;23.296;2022-09-17T05:12:32;10.30;;;3.27;;
35891;SDS011;21993;42.672;23.296;2022-09-17T05:14:57;6.53;;;2.77;;
35891;SDS011;21993;42.672;23.296;2022-09-17T05:17:23;9.73;;;3.57;;
35891;SDS011;21993;42.672;23.296;2022-09-17T05:19:48;7.23;;;3.30;;
35891;SDS011;21993;42.672;23.296;2022-09-17T05:22:14;8.60;;;3.47;;
35891;SDS011;21993;42.672;23.296;2022-09-17T05:24:39;10.87;;;3.43;;
35891;SDS011;21993;42.672;23.296;2022-09-17T05:27:05;11.53;;;3.60;;
35891;SDS011;21993;42.672;23.296;2022-09-17T05:29:31;6.87;;;2.90;;
35891;SDS011;21993;42.672;23.296;2022-09-17T05:31:57;7.97;;;2.93;;
35891;SDS011;21993;42.672;23.296;2022-09-17T05:34:22;7.67;;;2.93;;
35891;SDS011;21993;42.672;23.296;2022-09-17T05:36:48;7.63;;;3.27;;
35891;SDS011;21993;42.672;23.296;2022-09-17T05:39:13;9.13;;;3.10;;
35891;SDS011;21993;42.672;23.296;2022-09-17T05:41:39;5.87;;;2.97;;
35891;SDS011;21993;42.672;23.296;2022-09-17T05:44:04;6.37;;;3.17;;
35891;SDS011;21993;42.672;23.296;2022-09-17T05:46:30;9.00;;;4.60;;
35891;SDS011;21993;42.672;23.296;2022-09-17T05:48:55;6.70;;;4.27;;
35891;SDS011;21993;42.672;23.296;2022-09-17T05:51:22;11.10;;;4.77;;
35891;SDS011;21993;42.672;23.296;2022-09-17T05:53:48;6.03;;;3.50;;
35891;SDS011;21993;42.672;23.296;2022-09-17T05:56:13;10.60;;;4.40;;
35891;SDS011;21993;42.672;23.296;2022-09-17T05:58:39;10.80;;;4.90;;
35891;SDS011;21993;42.672;23.296;2022-09-17T06:01:04;11.30;;;4.87;;
35891;SDS011;21993;42.672;23.296;2022-09-17T06:03:30;6.27;;;4.40;;
35891;SDS011;21993;42.672;23.296;2022-09-17T06:05:59;8.80;;;4.13;;
35891;SDS011;21993;42.672;23.296;2022-09-17T06:08:25;14.63;;;5.20;;
35891;SDS011;21993;42.672;23.296;2022-09-17T06:10:52;9.70;;;5.10;;
35891;SDS011;21993;42.672;23.296;2022-09-17T06:13:18;10.23;;;5.03;;
35891;SDS011;21993;42.672;23.296;2022-09-17T06:15:53;9.40;;;5.33;;
35891;SDS011;21993;42.672;23.296;2022-09-17T06:18:19;7.80;;;5.20;;
35891;SDS011;21993;42.672;23.296;2022-09-17T06:20:54;14.83;;;8.23;;
35891;SDS011;21993;42.672;23.296;2022-09-17T06:23:24;14.70;;;8.00;;
35891;SDS011;21993;42.672;23.296;2022-09-17T06:25:51;13.83;;;6.10;;
35891;SDS011;21993;42.672;23.296;2022-09-17T06:28:24;9.10;;;4.83;;
35891;SDS011;21993;42.672;23.296;2022-09-17T06:30:50;10.67;;;4.13;;
35891;SDS011;21993;42.672;23.296;2022-09-17T06:33:18;11.30;;;5.07;;
35891;SDS011;21993;42.672;23.296;2022-09-17T06:35:44;8.57;;;3.80;;
35891;SDS011;21993;42.672;23.296;2022-09-17T06:38:10;7.77;;;3.50;;
35891;SDS011;21993;42.672;23.296;2022-09-17T06:40:35;8.20;;;3.03;;
35891;SDS011;21993;42.672;23.296;2022-09-17T06:43:01;7.23;;;3.47;;
35891;SDS011;21993;42.672;23.296;2022-09-17T06:45:27;7.47;;;3.67;;
35891;SDS011;21993;42.672;23.296;2022-09-17T06:47:52;8.97;;;3.60;;
35891;SDS011;21993;42.672;23.296;2022-09-17T06:50:18;7.37;;;3.60;;
35891;SDS011;21993;42.672;23.296;2022-09-17T06:52:50;26.13;;;15.53;;
35891;SDS011;21993;42.672;23.296;2022-09-17T06:55:17;5.87;;;3.93;;
35891;SDS011;21993;42.672;23.296;2022-09-17T06:57:43;10.60;;;3.43;;
35891;SDS011;21993;42.672;23.296;2022-09-17T07:00:09;7.30;;;3.37;;
35891;SDS011;21993;42.672;23.296;2022-09-17T07:02:36;7.50;;;3.70;;
35891;SDS011;21993;42.672;23.296;2022-09-17T07:05:01;4.87;;;3.30;;
35891;SDS011;21993;42.672;23.296;2022-09-17T07:07:27;8.83;;;3.53;;
35891;SDS011;21993;42.672;23.296;2022-09-17T07:09:53;7.33;;;4.30;;
35891;SDS011;21993;42.672;23.296;2022-09-17T07:12:19;10.20;;;5.27;;
35891;SDS011;21993;42.672;23.296;2022-09-17T07:14:45;6.10;;;4.17;;
35891;SDS011;21993;42.672;23.296;2022-09-17T07:17:12;7.50;;;4.10;;
35891;SDS011;21993;42.672;23.296;2022-09-17T07:19:38;9.63;;;3.90;;
35891;SDS011;21993;42.672;23.296;2022-09-17T07:22:03;7.13;;;4.93;;
35891;SDS011;21993;42.672;23.296;2022-09-17T07:24:29;9.97;;;4.70;;
35891;SDS011;21993;42.672;23.296;2022-09-17T07:26:54;7.00;;;3.87;;
35891;SDS011;21993;42.672;23.296;2022-09-17T07:29:20;4.53;;;3.47;;
35891;SDS011;21993;42.672;23.296;2022-09-17T07:31:47;7.27;;;4.40;;
35891;SDS011;21993;42.672;23.296;2022-09-17T07:34:13;8.17;;;3.90;;
35891;SDS011;21993;42.672;23.296;2022-09-17T07:36:38;10.30;;;3.97;;
35891;SDS011;21993;42.672;23.296;2022-09-17T07:39:04;6.77;;;4.53;;
35891;SDS011;21993;42.672;23.296;2022-09-17T07:41:29;7.20;;;4.47;;
35891;SDS011;21993;42.672;23.296;2022-09-17T07:43:56;8.70;;;4.50;;
35891;SDS011;21993;42.672;23.296;2022-09-17T07:46:21;7.73;;;4.27;;
35891;SDS011;21993;42.672;23.296;2022-09-17T07:48:47;9.00;;;4.00;;
35891;SDS011;21993;42.672;23.296;2022-09-17T07:51:20;9.23;;;4.50;;
35891;SDS011;21993;42.672;23.296;2022-09-17T07:53:51;14.40;;;5.37;;
35891;SDS011;21993;42.672;23.296;2022-09-17T07:56:17;10.27;;;5.20;;
35891;SDS011;21993;42.672;23.296;2022-09-17T07:58:42;10.90;;;4.93;;
35891;SDS011;21993;42.672;23.296;2022-09-17T08:01:09;8.40;;;4.77;;
35891;SDS011;21993;42.672;23.296;2022-09-17T08:03:36;9.63;;;4.83;;
35891;SDS011;21993;42.672;23.296;2022-09-17T08:06:09;6.03;;;4.50;;
35891;SDS011;21993;42.672;23.296;2022-09-17T08:08:37;6.50;;;4.20;;
35891;SDS011;21993;42.672;23.296;2022-09-17T08:11:13;6.70;;;3.90;;
35891;SDS011;21993;42.672;23.296;2022-09-17T08:13:41;6.93;;;4.50;;
35891;SDS011;21993;42.672;23.296;2022-09-17T08:16:08;7.23;;;4.17;;
35891;SDS011;21993;42.672;23.296;2022-09-17T08:18:37;8.87;;;3.60;;
35891;SDS011;21993;42.672;23.296;2022-09-17T08:21:04;8.67;;;4.23;;
35891;SDS011;21993;42.672;23.296;2022-09-17T08:23:33;8.37;;;3.97;;
35891;SDS011;21993;42.672;23.296;2022-09-17T08:26:00;7.90;;;3.57;;
35891;SDS011;21993;42.672;23.296;2022-09-17T08:28:27;6.67;;;3.50;;
35891;SDS011;21993;42.672;23.296;2022-09-17T08:30:58;9.97;;;4.87;;
35891;SDS011;21993;42.672;23.296;2022-09-17T08:33:24;4.83;;;2.80;;
35891;SDS011;21993;42.672;23.296;2022-09-17T08:35:51;2.40;;;2.03;;
35891;SDS011;21993;42.672;23.296;2022-09-17T08:38:23;4.80;;;2.77;;
35891;SDS011;21993;42.672;23.296;2022-09-17T08:41:03;5.80;;;2.77;;
35891;SDS011;21993;42.672;23.296;2022-09-17T08:46:25;3.40;;;2.20;;
35891;SDS011;21993;42.672;23.296;2022-09-17T08:49:01;4.63;;;2.20;;
35891;SDS011;21993;42.672;23.296;2022-09-17T08:57:24;8.20;;;3.10;;
35891;SDS011;21993;42.672;23.296;2022-09-17T09:00:15;9.33;;;2.87;;
35891;SDS011;21993;42.672;23.296;2022-09-17T09:05:49;7.67;;;3.13;;
35891;SDS011;21993;42.672;23.296;2022-09-17T09:08:30;5.87;;;3.10;;
35891;SDS011;21993;42.672;23.296;2022-09-17T09:11:05;6.17;;;2.63;;
35891;SDS011;21993;42.672;23.296;2022-09-17T09:13:42;6.23;;;2.67;;
35891;SDS011;21993;42.672;23.296;2022-09-17T09:16:13;4.87;;;2.63;;
35891;SDS011;21993;42.672;23.296;2022-09-17T09:18:44;4.17;;;2.90;;
35891;SDS011;21993;42.672;23.296;2022-09-17T09:21:25;5.33;;;3.07;;
35891;SDS011;21993;42.672;23.296;2022-09-17T09:31:57;9.10;;;4.67;;
35891;SDS011;21993;42.672;23.296;2022-09-17T09:34:27;7.27;;;2.80;;
35891;SDS011;21993;42.672;23.296;2022-09-17T09:36:59;8.23;;;3.20;;
35891;SDS011;21993;42.672;23.296;2022-09-17T09:39:36;4.67;;;3.90;;
35891;SDS011;21993;42.672;23.296;2022-09-17T09:45:13;7.40;;;3.77;;
35891;SDS011;21993;42.672;23.296;2022-09-17T09:50:28;9.17;;;4.07;;
35891;SDS011;21993;42.672;23.296;2022-09-17T10:01:00;10.80;;;5.07;;
35891;SDS011;21993;42.672;23.296;2022-09-17T10:03:30;8.70;;;4.30;;
35891;SDS011;21993;42.672;23.296;2022-09-17T10:06:01;13.20;;;5.43;;
35891;SDS011;21993;42.672;23.296;2022-09-17T10:08:30;13.37;;;5.60;;
35891;SDS011;21993;42.672;23.296;2022-09-17T10:13:30;10.80;;;4.80;;
35891;SDS011;21993;42.672;23.296;2022-09-17T10:18:48;12.80;;;6.00;;
35891;SDS011;21993;42.672;23.296;2022-09-17T10:21:25;9.63;;;6.00;;
35891;SDS011;21993;42.672;23.296;2022-09-17T10:23:55;8.27;;;5.67;;
35891;SDS011;21993;42.672;23.296;2022-09-17T10:26:22;10.93;;;4.90;;
35891;SDS011;21993;42.672;23.296;2022-09-17T10:28:50;12.30;;;5.00;;
35891;SDS011;21993;42.672;23.296;2022-09-17T10:31:23;9.00;;;5.27;;
35891;SDS011;21993;42.672;23.296;2022-09-17T10:34:01;10.70;;;5.80;;
35891;SDS011;21993;42.672;23.296;2022-09-17T10:36:40;11.13;;;6.13;;
35891;SDS011;21993;42.672;23.296;2022-09-17T10:39:49;8.67;;;5.53;;
35891;SDS011;21993;42.672;23.296;2022-09-17T10:42:14;6.57;;;3.47;;
35891;SDS011;21993;42.672;23.296;2022-09-17T10:44:57;11.37;;;4.57;;
35891;SDS011;21993;42.672;23.296;2022-09-17T10:47:28;5.60;;;3.80;;
35891;SDS011;21993;42.672;23.296;2022-09-17T10:50:03;6.23;;;4.60;;
35891;SDS011;21993;42.672;23.296;2022-09-17T10:52:36;10.83;;;5.67;;
35891;SDS011;21993;42.672;23.296;2022-09-17T10:58:01;7.87;;;5.77;;
35891;SDS011;21993;42.672;23.296;2022-09-17T11:36:45;7.50;;;4.73;;
35891;SDS011;21993;42.672;23.296;2022-09-17T11:39:24;11.50;;;7.77;;
35891;SDS011;21993;42.672;23.296;2022-09-17T11:42:05;11.20;;;6.93;;
35891;SDS011;21993;42.672;23.296;2022-09-17T11:44:40;7.23;;;4.23;;
35891;SDS011;21993;42.672;23.296;2022-09-17T11:47:18;5.03;;;3.93;;
35891;SDS011;21993;42.672;23.296;2022-09-17T11:49:45;8.17;;;6.53;;
35891;SDS011;21993;42.672;23.296;2022-09-17T11:57:17;7.90;;;3.80;;
35891;SDS011;21993;42.672;23.296;2022-09-17T12:05:24;6.27;;;3.93;;
35891;SDS011;21993;42.672;23.296;2022-09-17T12:07:58;7.27;;;3.87;;
35891;SDS011;21993;42.672;23.296;2022-09-17T12:13:53;6.87;;;4.47;;
35891;SDS011;21993;42.672;23.296;2022-09-17T12:19:13;6.60;;;4.17;;
35891;SDS011;21993;42.672;23.296;2022-09-17T12:24:49;7.53;;;4.23;;
35891;SDS011;21993;42.672;23.296;2022-09-17T12:54:48;4.23;;;2.37;;
35891;SDS011;21993;42.672;23.296;2022-09-17T13:00:10;2.77;;;1.33;;
35891;SDS011;21993;42.672;23.296;2022-09-17T13:02:42;3.13;;;1.67;;
35891;SDS011;21993;42.672;23.296;2022-09-17T13:05:28;1.70;;;1.40;;
35891;SDS011;21993;42.672;23.296;2022-09-17T13:11:20;2.13;;;1.63;;
35891;SDS011;21993;42.672;23.296;2022-09-17T13:19:19;5.37;;;1.60;;
35891;SDS011;21993;42.672;23.296;2022-09-17T13:21:52;2.33;;;1.70;;
35891;SDS011;21993;42.672;23.296;2022-09-17T13:24:23;3.37;;;1.93;;
35891;SDS011;21993;42.672;23.296;2022-09-17T13:26:51;1.40;;;1.30;;
35891;SDS011;21993;42.672;23.296;2022-09-17T13:29:56;2.43;;;1.27;;
35891;SDS011;21993;42.672;23.296;2022-09-17T13:37:30;1.53;;;1.20;;
35891;SDS011;21993;42.672;23.296;2022-09-17T13:40:01;2.33;;;1.30;;
35891;SDS011;21993;42.672;23.296;2022-09-17T13:42:29;1.30;;;1.20;;
35891;SDS011;21993;42.672;23.296;2022-09-17T13:45:10;3.23;;;1.33;;
35891;SDS011;21993;42.672;23.296;2022-09-17T13:50:31;4.07;;;1.77;;
35891;SDS011;21993;42.672;23.296;2022-09-17T13:55:43;1.77;;;1.50;;
35891;SDS011;21993;42.672;23.296;2022-09-17T14:01:01;7.60;;;2.23;;
35891;SDS011;21993;42.672;23.296;2022-09-17T14:24:23;7.80;;;3.53;;
35891;SDS011;21993;42.672;23.296;2022-09-17T14:35:58;10.63;;;4.33;;
35891;SDS011;21993;42.672;23.296;2022-09-17T14:41:14;6.53;;;3.23;;
35891;SDS011;21993;42.672;23.296;2022-09-17T14:43:47;5.27;;;3.53;;
35891;SDS011;21993;42.672;23.296;2022-09-17T14:48:51;6.47;;;3.73;;
35891;SDS011;21993;42.672;23.296;2022-09-17T14:53:46;4.17;;;3.37;;
35891;SDS011;21993;42.672;23.296;2022-09-17T14:56:16;7.93;;;4.40;;
35891;SDS011;21993;42.672;23.296;2022-09-17T14:58:45;9.03;;;4.07;;
35891;SDS011;21993;42.672;23.296;2022-09-17T15:01:25;6.57;;;3.57;;
35891;SDS011;21993;42.672;23.296;2022-09-17T15:06:38;7.53;;;3.87;;
35891;SDS011;21993;42.672;23.296;2022-09-17T15:09:05;6.10;;;3.43;;
35891;SDS011;21993;42.672;23.296;2022-09-17T15:11:33;4.93;;;3.07;;
35891;SDS011;21993;42.672;23.296;2022-09-17T15:14:04;6.87;;;3.40;;
35891;SDS011;21993;42.672;23.296;2022-09-17T15:16:35;4.67;;;3.33;;
35891;SDS011;21993;42.672;23.296;2022-09-17T15:19:01;5.80;;;3.20;;
35891;SDS011;21993;42.672;23.296;2022-09-17T15:21:29;5.00;;;3.73;;
35891;SDS011;21993;42.672;23.296;2022-09-17T15:24:14;6.73;;;3.43;;
35891;SDS011;21993;42.672;23.296;2022-09-17T15:26:47;4.63;;;2.90;;
35891;SDS011;21993;42.672;23.296;2022-09-17T15:29:15;5.00;;;3.73;;
35891;SDS011;21993;42.672;23.296;2022-09-17T15:31:40;6.87;;;4.00;;
35891;SDS011;21993;42.672;23.296;2022-09-17T15:34:08;9.13;;;4.93;;
35891;SDS011;21993;42.672;23.296;2022-09-17T15:36:36;7.77;;;3.50;;
35891;SDS011;21993;42.672;23.296;2022-09-17T15:39:04;5.27;;;2.80;;
35891;SDS011;21993;42.672;23.296;2022-09-17T15:41:55;4.20;;;2.80;;
35891;SDS011;21993;42.672;23.296;2022-09-17T15:44:25;4.77;;;2.60;;
35891;SDS011;21993;42.672;23.296;2022-09-17T15:46:51;5.50;;;2.77;;
35891;SDS011;21993;42.672;23.296;2022-09-17T15:49:25;4.63;;;2.97;;
35891;SDS011;21993;42.672;23.296;2022-09-17T15:51:51;5.40;;;3.03;;
35891;SDS011;21993;42.672;23.296;2022-09-17T15:54:27;7.30;;;3.43;;
35891;SDS011;21993;42.672;23.296;2022-09-17T15:56:55;4.73;;;3.20;;
35891;SDS011;21993;42.672;23.296;2022-09-17T16:01:55;5.80;;;3.27;;
35891;SDS011;21993;42.672;23.296;2022-09-17T16:04:32;8.03;;;4.70;;
35891;SDS011;21993;42.672;23.296;2022-09-17T16:09:37;7.50;;;3.20;;
35891;SDS011;21993;42.672;23.296;2022-09-17T16:12:03;7.90;;;3.90;;
35891;SDS011;21993;42.672;23.296;2022-09-17T16:14:28;5.07;;;3.70;;
35891;SDS011;21993;42.672;23.296;2022-09-17T16:16:54;6.67;;;3.87;;
35891;SDS011;21993;42.672;23.296;2022-09-17T16:19:20;7.83;;;4.50;;
35891;SDS011;21993;42.672;23.296;2022-09-17T16:21:46;6.60;;;4.60;;
35891;SDS011;21993;42.672;23.296;2022-09-17T16:24:12;8.60;;;4.80;;
35891;SDS011;21993;42.672;23.296;2022-09-17T16:26:37;6.93;;;4.77;;
35891;SDS011;21993;42.672;23.296;2022-09-17T16:29:04;8.23;;;5.20;;
35891;SDS011;21993;42.672;23.296;2022-09-17T16:31:35;7.53;;;5.10;;
35891;SDS011;21993;42.672;23.296;2022-09-17T16:34:00;7.53;;;4.13;;
35891;SDS011;21993;42.672;23.296;2022-09-17T16:36:26;10.60;;;5.23;;
35891;SDS011;21993;42.672;23.296;2022-09-17T16:38:54;7.70;;;4.50;;
35891;SDS011;21993;42.672;23.296;2022-09-17T16:41:20;8.10;;;4.80;;
35891;SDS011;21993;42.672;23.296;2022-09-17T16:43:46;6.63;;;4.20;;
35891;SDS011;21993;42.672;23.296;2022-09-17T16:46:11;5.83;;;3.50;;
35891;SDS011;21993;42.672;23.296;2022-09-17T16:48:37;6.43;;;3.77;;
35891;SDS011;21993;42.672;23.296;2022-09-17T16:51:11;8.97;;;5.40;;
35891;SDS011;21993;42.672;23.296;2022-09-17T16:53:38;5.20;;;4.40;;
35891;SDS011;21993;42.672;23.296;2022-09-17T16:56:07;8.60;;;5.50;;
35891;SDS011;21993;42.672;23.296;2022-09-17T16:58:33;5.13;;;3.10;;
35891;SDS011;21993;42.672;23.296;2022-09-17T17:01:12;5.67;;;3.43;;
35891;SDS011;21993;42.672;23.296;2022-09-17T17:03:39;6.77;;;3.50;;
35891;SDS011;21993;42.672;23.296;2022-09-17T17:06:05;4.67;;;3.70;;
35891;SDS011;21993;42.672;23.296;2022-09-17T17:08:31;4.70;;;3.93;;
35891;SDS011;21993;42.672;23.296;2022-09-17T17:10:57;3.80;;;3.40;;
35891;SDS011;21993;42.672;23.296;2022-09-17T17:13:23;6.60;;;4.60;;
35891;SDS011;21993;42.672;23.296;2022-09-17T17:15:48;6.70;;;3.93;;
35891;SDS011;21993;42.672;23.296;2022-09-17T17:18:14;10.57;;;4.60;;
35891;SDS011;21993;42.672;23.296;2022-09-17T17:20:39;6.50;;;4.40;;
35891;SDS011;21993;42.672;23.296;2022-09-17T17:23:05;8.93;;;5.37;;
35891;SDS011;21993;42.672;23.296;2022-09-17T17:25:30;7.33;;;3.93;;
35891;SDS011;21993;42.672;23.296;2022-09-17T17:27:56;5.80;;;3.60;;
35891;SDS011;21993;42.672;23.296;2022-09-17T17:30:22;6.83;;;3.93;;
35891;SDS011;21993;42.672;23.296;2022-09-17T17:32:48;5.60;;;3.60;;
35891;SDS011;21993;42.672;23.296;2022-09-17T17:35:15;7.00;;;3.93;;
35891;SDS011;21993;42.672;23.296;2022-09-17T17:37:41;5.90;;;3.57;;
35891;SDS011;21993;42.672;23.296;2022-09-17T17:40:07;4.73;;;3.07;;
35891;SDS011;21993;42.672;23.296;2022-09-17T17:42:34;4.03;;;3.07;;
35891;SDS011;21993;42.672;23.296;2022-09-17T17:45:02;7.17;;;3.60;;
35891;SDS011;21993;42.672;23.296;2022-09-17T17:47:28;5.47;;;4.23;;
35891;SDS011;21993;42.672;23.296;2022-09-17T17:49:54;7.00;;;3.83;;
35891;SDS011;21993;42.672;23.296;2022-09-17T17:52:19;5.33;;;3.57;;
35891;SDS011;21993;42.672;23.296;2022-09-17T17:54:45;5.93;;;4.30;;
35891;SDS011;21993;42.672;23.296;2022-09-17T17:57:10;5.20;;;4.10;;
35891;SDS011;21993;42.672;23.296;2022-09-17T17:59:36;7.20;;;2.80;;
35891;SDS011;21993;42.672;23.296;2022-09-17T18:02:02;4.73;;;3.10;;
35891;SDS011;21993;42.672;23.296;2022-09-17T18:04:27;5.60;;;2.87;;
35891;SDS011;21993;42.672;23.296;2022-09-17T18:06:53;5.13;;;2.63;;
35891;SDS011;21993;42.672;23.296;2022-09-17T18:09:18;3.57;;;2.60;;
35891;SDS011;21993;42.672;23.296;2022-09-17T18:11:44;4.67;;;3.20;;
35891;SDS011;21993;42.672;23.296;2022-09-17T18:14:10;3.50;;;2.50;;
35891;SDS011;21993;42.672;23.296;2022-09-17T18:16:37;3.67;;;2.73;;
35891;SDS011;21993;42.672;23.296;2022-09-17T18:19:03;4.57;;;3.00;;
35891;SDS011;21993;42.672;23.296;2022-09-17T18:21:29;5.50;;;2.93;;
35891;SDS011;21993;42.672;23.296;2022-09-17T18:23:55;5.73;;;2.80;;
35891;SDS011;21993;42.672;23.296;2022-09-17T18:26:21;6.13;;;3.00;;
35891;SDS011;21993;42.672;23.296;2022-09-17T18:28:49;8.43;;;3.33;;
35891;SDS011;21993;42.672;23.296;2022-09-17T18:31:33;4.17;;;2.93;;
35891;SDS011;21993;42.672;23.296;2022-09-17T18:34:03;6.97;;;4.37;;
35891;SDS011;21993;42.672;23.296;2022-09-17T18:36:31;6.43;;;3.70;;
35891;SDS011;21993;42.672;23.296;2022-09-17T18:38:58;10.53;;;3.53;;
35891;SDS011;21993;42.672;23.296;2022-09-17T18:41:26;4.27;;;3.00;;
35891;SDS011;21993;42.672;23.296;2022-09-17T18:43:58;6.20;;;3.43;;
35891;SDS011;21993;42.672;23.296;2022-09-17T18:46:27;4.90;;;3.70;;
35891;SDS011;21993;42.672;23.296;2022-09-17T18:48:54;5.43;;;3.20;;
35891;SDS011;21993;42.672;23.296;2022-09-17T18:51:21;5.30;;;3.80;;
35891;SDS011;21993;42.672;23.296;2022-09-17T18:53:47;7.83;;;3.30;;
35891;SDS011;21993;42.672;23.296;2022-09-17T18:56:14;5.97;;;3.30;;
35891;SDS011;21993;42.672;23.296;2022-09-17T18:58:44;7.33;;;3.83;;
35891;SDS011;21993;42.672;23.296;2022-09-17T19:01:11;6.47;;;3.43;;